sensor_id;sensor_type;location;lat;lon;timestamp;P1;durP1;ratioP1;P2;durP2;ratioP2
62832;SDS011;48891;49.220;6.920;2023-05-19T00:01:24;16.98;;;12.38;;
62832;SDS011;48891;49.220;6.920;2023-05-19T00:03:56;16.23;;;12.32;;
62832;SDS011;48891;49.220;6.920;2023-05-19T00:06:24;15.52;;;12.80;;
62832;SDS011;48891;49.220;6.920;2023-05-19T00:08:53;17.00;;;13.32;;
62832;SDS011;48891;49.220;6.920;2023-05-19T00:11:22;16.40;;;12.57;;
62832;SDS011;48891;49.220;6.920;2023-05-19T00:13:47;15.43;;;12.50;;
62832;SDS011;48891;49.220;6.920;2023-05-19T00:16:13;14.93;;;12.35;;
62832;SDS011;48891;49.220;6.920;2023-05-19T00:18:38;16.20;;;12.45;;
62832;SDS011;48891;49.220;6.920;2023-05-19T00:21:03;15.45;;;12.95;;
62832;SDS011;48891;49.220;6.920;2023-05-19T00:23:29;17.23;;;13.27;;
62832;SDS011;48891;49.220;6.920;2023-05-19T00:25:54;16.20;;;12.45;;
62832;SDS011;48891;49.220;6.920;2023-05-19T00:28:19;18.42;;;13.27;;
62832;SDS011;48891;49.220;6.920;2023-05-19T00:30:44;18.88;;;13.07;;
62832;SDS011;48891;49.220;6.920;2023-05-19T00:33:10;17.48;;;12.82;;
62832;SDS011;48891;49.220;6.920;2023-05-19T00:35:35;14.90;;;11.60;;
62832;SDS011;48891;49.220;6.920;2023-05-19T00:38:00;17.02;;;12.82;;
62832;SDS011;48891;49.220;6.920;2023-05-19T00:40:25;16.42;;;12.85;;
62832;SDS011;48891;49.220;6.920;2023-05-19T00:42:51;16.75;;;13.55;;
62832;SDS011;48891;49.220;6.920;2023-05-19T00:45:16;16.27;;;12.50;;
62832;SDS011;48891;49.220;6.920;2023-05-19T00:47:41;16.60;;;12.20;;
62832;SDS011;48891;49.220;6.920;2023-05-19T00:50:07;16.00;;;12.15;;
62832;SDS011;48891;49.220;6.920;2023-05-19T00:52:32;16.58;;;13.38;;
62832;SDS011;48891;49.220;6.920;2023-05-19T00:54:57;15.90;;;12.77;;
62832;SDS011;48891;49.220;6.920;2023-05-19T00:57:23;16.10;;;13.05;;
62832;SDS011;48891;49.220;6.920;2023-05-19T00:59:48;18.30;;;13.43;;
62832;SDS011;48891;49.220;6.920;2023-05-19T01:02:14;15.02;;;12.57;;
62832;SDS011;48891;49.220;6.920;2023-05-19T01:04:39;18.40;;;13.65;;
62832;SDS011;48891;49.220;6.920;2023-05-19T01:07:05;16.60;;;13.35;;
62832;SDS011;48891;49.220;6.920;2023-05-19T01:09:30;17.35;;;13.32;;
62832;SDS011;48891;49.220;6.920;2023-05-19T01:11:56;17.77;;;13.82;;
62832;SDS011;48891;49.220;6.920;2023-05-19T01:14:21;16.42;;;12.75;;
62832;SDS011;48891;49.220;6.920;2023-05-19T01:16:53;18.42;;;13.50;;
62832;SDS011;48891;49.220;6.920;2023-05-19T01:22:31;18.27;;;13.90;;
62832;SDS011;48891;49.220;6.920;2023-05-19T01:30:42;17.48;;;12.50;;
62832;SDS011;48891;49.220;6.920;2023-05-19T01:33:09;18.30;;;13.80;;
62832;SDS011;48891;49.220;6.920;2023-05-19T01:35:36;16.85;;;13.18;;
62832;SDS011;48891;49.220;6.920;2023-05-19T01:38:04;17.48;;;13.20;;
62832;SDS011;48891;49.220;6.920;2023-05-19T01:40:33;19.25;;;14.00;;
62832;SDS011;48891;49.220;6.920;2023-05-19T01:43:00;17.23;;;12.95;;
62832;SDS011;48891;49.220;6.920;2023-05-19T01:45:29;16.60;;;13.45;;
62832;SDS011;48891;49.220;6.920;2023-05-19T01:47:57;16.65;;;13.07;;
62832;SDS011;48891;49.220;6.920;2023-05-19T01:50:24;16.83;;;13.07;;
62832;SDS011;48891;49.220;6.920;2023-05-19T01:52:50;18.10;;;13.32;;
62832;SDS011;48891;49.220;6.920;2023-05-19T01:55:16;15.48;;;12.63;;
62832;SDS011;48891;49.220;6.920;2023-05-19T02:14:02;16.50;;;13.05;;
62832;SDS011;48891;49.220;6.920;2023-05-19T02:16:32;17.42;;;13.35;;
62832;SDS011;48891;49.220;6.920;2023-05-19T02:19:00;17.17;;;13.77;;
62832;SDS011;48891;49.220;6.920;2023-05-19T02:21:25;17.42;;;13.25;;
62832;SDS011;48891;49.220;6.920;2023-05-19T02:23:50;19.42;;;13.90;;
62832;SDS011;48891;49.220;6.920;2023-05-19T02:26:15;17.00;;;13.00;;
62832;SDS011;48891;49.220;6.920;2023-05-19T02:28:41;18.00;;;13.73;;
62832;SDS011;48891;49.220;6.920;2023-05-19T02:31:06;20.33;;;14.05;;
62832;SDS011;48891;49.220;6.920;2023-05-19T02:33:31;16.40;;;13.35;;
62832;SDS011;48891;49.220;6.920;2023-05-19T02:35:56;16.65;;;12.75;;
62832;SDS011;48891;49.220;6.920;2023-05-19T02:38:22;16.35;;;13.23;;
62832;SDS011;48891;49.220;6.920;2023-05-19T02:40:47;16.50;;;13.48;;
62832;SDS011;48891;49.220;6.920;2023-05-19T02:43:12;17.02;;;13.02;;
62832;SDS011;48891;49.220;6.920;2023-05-19T02:45:38;16.30;;;13.07;;
62832;SDS011;48891;49.220;6.920;2023-05-19T02:48:03;16.35;;;12.52;;
62832;SDS011;48891;49.220;6.920;2023-05-19T02:50:28;17.63;;;13.15;;
62832;SDS011;48891;49.220;6.920;2023-05-19T02:52:54;16.55;;;13.07;;
62832;SDS011;48891;49.220;6.920;2023-05-19T02:55:19;15.93;;;12.32;;
62832;SDS011;48891;49.220;6.920;2023-05-19T02:57:44;17.98;;;13.30;;
62832;SDS011;48891;49.220;6.920;2023-05-19T03:00:09;16.60;;;13.00;;
62832;SDS011;48891;49.220;6.920;2023-05-19T03:02:35;16.27;;;12.93;;
62832;SDS011;48891;49.220;6.920;2023-05-19T03:05:00;16.33;;;12.88;;
62832;SDS011;48891;49.220;6.920;2023-05-19T03:07:25;17.73;;;12.55;;
62832;SDS011;48891;49.220;6.920;2023-05-19T03:09:51;15.98;;;12.50;;
62832;SDS011;48891;49.220;6.920;2023-05-19T03:12:16;16.25;;;12.80;;
62832;SDS011;48891;49.220;6.920;2023-05-19T03:14:41;17.17;;;12.85;;
62832;SDS011;48891;49.220;6.920;2023-05-19T03:17:07;16.88;;;12.75;;
62832;SDS011;48891;49.220;6.920;2023-05-19T03:19:32;15.27;;;12.20;;
62832;SDS011;48891;49.220;6.920;2023-05-19T03:21:57;15.15;;;12.45;;
62832;SDS011;48891;49.220;6.920;2023-05-19T03:24:22;15.48;;;12.65;;
62832;SDS011;48891;49.220;6.920;2023-05-19T03:26:48;15.93;;;12.63;;
62832;SDS011;48891;49.220;6.920;2023-05-19T03:29:13;17.00;;;12.45;;
62832;SDS011;48891;49.220;6.920;2023-05-19T03:31:38;16.83;;;13.07;;
62832;SDS011;48891;49.220;6.920;2023-05-19T03:34:03;16.05;;;12.52;;
62832;SDS011;48891;49.220;6.920;2023-05-19T03:36:29;15.98;;;12.40;;
62832;SDS011;48891;49.220;6.920;2023-05-19T03:38:54;17.20;;;12.52;;
62832;SDS011;48891;49.220;6.920;2023-05-19T03:41:19;16.73;;;12.73;;
62832;SDS011;48891;49.220;6.920;2023-05-19T03:43:44;16.20;;;12.55;;
62832;SDS011;48891;49.220;6.920;2023-05-19T03:46:09;17.17;;;12.48;;
62832;SDS011;48891;49.220;6.920;2023-05-19T03:48:35;16.13;;;12.18;;
62832;SDS011;48891;49.220;6.920;2023-05-19T03:51:00;16.90;;;13.23;;
62832;SDS011;48891;49.220;6.920;2023-05-19T03:53:25;17.40;;;13.05;;
62832;SDS011;48891;49.220;6.920;2023-05-19T03:55:50;15.35;;;12.63;;
62832;SDS011;48891;49.220;6.920;2023-05-19T03:58:16;16.55;;;12.93;;
62832;SDS011;48891;49.220;6.920;2023-05-19T04:00:41;18.30;;;13.20;;
62832;SDS011;48891;49.220;6.920;2023-05-19T04:03:06;18.10;;;13.07;;
62832;SDS011;48891;49.220;6.920;2023-05-19T04:05:32;16.00;;;13.38;;
62832;SDS011;48891;49.220;6.920;2023-05-19T04:07:57;16.40;;;13.10;;
62832;SDS011;48891;49.220;6.920;2023-05-19T04:10:22;17.05;;;13.18;;
62832;SDS011;48891;49.220;6.920;2023-05-19T04:12:48;17.20;;;13.07;;
62832;SDS011;48891;49.220;6.920;2023-05-19T04:15:13;17.80;;;14.20;;
62832;SDS011;48891;49.220;6.920;2023-05-19T04:17:38;16.42;;;12.90;;
62832;SDS011;48891;49.220;6.920;2023-05-19T04:20:04;15.60;;;12.50;;
62832;SDS011;48891;49.220;6.920;2023-05-19T04:22:29;18.17;;;14.00;;
62832;SDS011;48891;49.220;6.920;2023-05-19T04:24:55;16.27;;;13.02;;
62832;SDS011;48891;49.220;6.920;2023-05-19T04:27:20;16.40;;;13.90;;
62832;SDS011;48891;49.220;6.920;2023-05-19T04:29:45;18.17;;;13.95;;
62832;SDS011;48891;49.220;6.920;2023-05-19T04:32:10;18.40;;;14.40;;
62832;SDS011;48891;49.220;6.920;2023-05-19T04:34:36;17.95;;;13.73;;
62832;SDS011;48891;49.220;6.920;2023-05-19T04:37:01;17.02;;;14.18;;
62832;SDS011;48891;49.220;6.920;2023-05-19T04:39:26;19.45;;;14.40;;
62832;SDS011;48891;49.220;6.920;2023-05-19T04:41:52;18.85;;;14.43;;
62832;SDS011;48891;49.220;6.920;2023-05-19T04:44:17;16.90;;;13.45;;
62832;SDS011;48891;49.220;6.920;2023-05-19T04:46:43;19.85;;;14.23;;
62832;SDS011;48891;49.220;6.920;2023-05-19T04:49:08;16.80;;;14.30;;
62832;SDS011;48891;49.220;6.920;2023-05-19T04:51:33;18.83;;;14.65;;
62832;SDS011;48891;49.220;6.920;2023-05-19T04:53:59;19.15;;;15.52;;
62832;SDS011;48891;49.220;6.920;2023-05-19T04:56:24;19.33;;;15.20;;
62832;SDS011;48891;49.220;6.920;2023-05-19T04:58:49;18.23;;;14.77;;
62832;SDS011;48891;49.220;6.920;2023-05-19T05:01:15;18.77;;;15.95;;
62832;SDS011;48891;49.220;6.920;2023-05-19T05:03:40;20.00;;;16.15;;
62832;SDS011;48891;49.220;6.920;2023-05-19T05:06:06;20.15;;;16.20;;
62832;SDS011;48891;49.220;6.920;2023-05-19T05:08:31;21.10;;;16.73;;
62832;SDS011;48891;49.220;6.920;2023-05-19T05:10:57;18.23;;;15.93;;
62832;SDS011;48891;49.220;6.920;2023-05-19T05:13:22;19.73;;;15.65;;
62832;SDS011;48891;49.220;6.920;2023-05-19T05:15:48;19.33;;;15.07;;
62832;SDS011;48891;49.220;6.920;2023-05-19T05:18:14;17.92;;;15.80;;
62832;SDS011;48891;49.220;6.920;2023-05-19T05:20:40;19.20;;;15.90;;
62832;SDS011;48891;49.220;6.920;2023-05-19T05:23:06;19.77;;;16.10;;
62832;SDS011;48891;49.220;6.920;2023-05-19T05:25:32;20.48;;;16.52;;
62832;SDS011;48891;49.220;6.920;2023-05-19T05:27:57;20.55;;;16.10;;
62832;SDS011;48891;49.220;6.920;2023-05-19T05:30:23;19.45;;;16.58;;
62832;SDS011;48891;49.220;6.920;2023-05-19T05:32:48;22.38;;;17.27;;
62832;SDS011;48891;49.220;6.920;2023-05-19T05:35:13;20.00;;;16.30;;
62832;SDS011;48891;49.220;6.920;2023-05-19T05:37:39;20.42;;;17.50;;
62832;SDS011;48891;49.220;6.920;2023-05-19T05:40:04;21.30;;;17.88;;
62832;SDS011;48891;49.220;6.920;2023-05-19T05:42:30;22.35;;;18.83;;
62832;SDS011;48891;49.220;6.920;2023-05-19T05:44:55;21.10;;;17.77;;
62832;SDS011;48891;49.220;6.920;2023-05-19T05:47:20;22.48;;;18.10;;
62832;SDS011;48891;49.220;6.920;2023-05-19T05:49:46;22.08;;;19.27;;
62832;SDS011;48891;49.220;6.920;2023-05-19T05:52:11;22.25;;;18.08;;
62832;SDS011;48891;49.220;6.920;2023-05-19T05:54:37;24.70;;;19.63;;
62832;SDS011;48891;49.220;6.920;2023-05-19T05:57:02;23.10;;;19.23;;
62832;SDS011;48891;49.220;6.920;2023-05-19T05:59:28;25.05;;;19.52;;
62832;SDS011;48891;49.220;6.920;2023-05-19T06:01:53;22.92;;;19.38;;
62832;SDS011;48891;49.220;6.920;2023-05-19T06:04:18;22.88;;;19.15;;
62832;SDS011;48891;49.220;6.920;2023-05-19T06:06:43;26.67;;;21.42;;
62832;SDS011;48891;49.220;6.920;2023-05-19T06:09:09;22.88;;;18.95;;
62832;SDS011;48891;49.220;6.920;2023-05-19T06:11:34;25.02;;;20.17;;
62832;SDS011;48891;49.220;6.920;2023-05-19T06:13:59;26.13;;;20.85;;
62832;SDS011;48891;49.220;6.920;2023-05-19T06:16:24;25.40;;;20.50;;
62832;SDS011;48891;49.220;6.920;2023-05-19T06:18:49;25.75;;;21.60;;
62832;SDS011;48891;49.220;6.920;2023-05-19T06:21:15;26.13;;;20.17;;
62832;SDS011;48891;49.220;6.920;2023-05-19T06:23:40;26.05;;;21.02;;
62832;SDS011;48891;49.220;6.920;2023-05-19T06:26:05;24.50;;;20.08;;
62832;SDS011;48891;49.220;6.920;2023-05-19T06:28:31;26.05;;;21.38;;
62832;SDS011;48891;49.220;6.920;2023-05-19T06:30:57;25.58;;;21.05;;
62832;SDS011;48891;49.220;6.920;2023-05-19T06:33:23;25.27;;;21.73;;
62832;SDS011;48891;49.220;6.920;2023-05-19T06:35:48;25.17;;;21.52;;
62832;SDS011;48891;49.220;6.920;2023-05-19T06:38:13;26.42;;;21.50;;
62832;SDS011;48891;49.220;6.920;2023-05-19T06:40:39;27.48;;;22.45;;
62832;SDS011;48891;49.220;6.920;2023-05-19T06:43:04;26.23;;;21.83;;
62832;SDS011;48891;49.220;6.920;2023-05-19T06:45:29;25.70;;;21.48;;
62832;SDS011;48891;49.220;6.920;2023-05-19T06:47:55;26.90;;;21.27;;
62832;SDS011;48891;49.220;6.920;2023-05-19T06:50:20;25.90;;;21.77;;
62832;SDS011;48891;49.220;6.920;2023-05-19T06:52:45;29.47;;;21.43;;
62832;SDS011;48891;49.220;6.920;2023-05-19T06:55:10;26.70;;;21.88;;
62832;SDS011;48891;49.220;6.920;2023-05-19T06:57:36;28.05;;;21.90;;
62832;SDS011;48891;49.220;6.920;2023-05-19T07:00:01;26.25;;;21.95;;
62832;SDS011;48891;49.220;6.920;2023-05-19T07:02:26;27.23;;;21.85;;
62832;SDS011;48891;49.220;6.920;2023-05-19T07:04:51;28.48;;;23.67;;
62832;SDS011;48891;49.220;6.920;2023-05-19T07:07:17;31.35;;;22.65;;
62832;SDS011;48891;49.220;6.920;2023-05-19T07:09:42;29.58;;;22.85;;
62832;SDS011;48891;49.220;6.920;2023-05-19T07:12:07;27.30;;;22.25;;
62832;SDS011;48891;49.220;6.920;2023-05-19T07:14:33;27.35;;;22.55;;
62832;SDS011;48891;49.220;6.920;2023-05-19T07:16:58;29.45;;;23.00;;
62832;SDS011;48891;49.220;6.920;2023-05-19T07:19:23;27.45;;;22.35;;
62832;SDS011;48891;49.220;6.920;2023-05-19T07:21:48;26.90;;;22.10;;
62832;SDS011;48891;49.220;6.920;2023-05-19T07:24:14;27.52;;;22.95;;
62832;SDS011;48891;49.220;6.920;2023-05-19T07:26:39;29.02;;;23.52;;
62832;SDS011;48891;49.220;6.920;2023-05-19T07:29:05;26.52;;;22.98;;
62832;SDS011;48891;49.220;6.920;2023-05-19T07:31:30;28.02;;;22.38;;
62832;SDS011;48891;49.220;6.920;2023-05-19T07:33:55;28.30;;;23.08;;
62832;SDS011;48891;49.220;6.920;2023-05-19T07:36:21;29.80;;;24.02;;
62832;SDS011;48891;49.220;6.920;2023-05-19T07:38:46;27.73;;;22.77;;
62832;SDS011;48891;49.220;6.920;2023-05-19T07:41:11;27.20;;;22.88;;
62832;SDS011;48891;49.220;6.920;2023-05-19T07:43:37;26.63;;;22.08;;
62832;SDS011;48891;49.220;6.920;2023-05-19T07:46:02;25.77;;;21.65;;
62832;SDS011;48891;49.220;6.920;2023-05-19T07:48:28;26.67;;;21.90;;
62832;SDS011;48891;49.220;6.920;2023-05-19T07:50:53;28.67;;;23.25;;
62832;SDS011;48891;49.220;6.920;2023-05-19T07:53:18;29.02;;;23.33;;
62832;SDS011;48891;49.220;6.920;2023-05-19T07:55:44;28.77;;;23.05;;
62832;SDS011;48891;49.220;6.920;2023-05-19T07:58:10;26.77;;;23.88;;
62832;SDS011;48891;49.220;6.920;2023-05-19T08:00:35;27.65;;;22.98;;
62832;SDS011;48891;49.220;6.920;2023-05-19T08:03:00;27.25;;;23.15;;
62832;SDS011;48891;49.220;6.920;2023-05-19T08:05:26;27.55;;;22.23;;
62832;SDS011;48891;49.220;6.920;2023-05-19T08:07:51;28.67;;;23.52;;
62832;SDS011;48891;49.220;6.920;2023-05-19T08:10:16;27.58;;;22.58;;
62832;SDS011;48891;49.220;6.920;2023-05-19T08:12:42;28.75;;;23.52;;
62832;SDS011;48891;49.220;6.920;2023-05-19T08:15:07;27.42;;;23.02;;
62832;SDS011;48891;49.220;6.920;2023-05-19T08:17:33;27.35;;;22.65;;
62832;SDS011;48891;49.220;6.920;2023-05-19T08:19:58;28.35;;;22.95;;
62832;SDS011;48891;49.220;6.920;2023-05-19T08:22:23;28.63;;;23.30;;
62832;SDS011;48891;49.220;6.920;2023-05-19T08:24:49;30.85;;;23.92;;
62832;SDS011;48891;49.220;6.920;2023-05-19T08:27:14;29.73;;;24.13;;
62832;SDS011;48891;49.220;6.920;2023-05-19T08:29:39;27.42;;;22.83;;
62832;SDS011;48891;49.220;6.920;2023-05-19T08:32:05;28.13;;;22.17;;
62832;SDS011;48891;49.220;6.920;2023-05-19T08:34:30;28.48;;;22.77;;
62832;SDS011;48891;49.220;6.920;2023-05-19T08:36:55;27.13;;;22.45;;
62832;SDS011;48891;49.220;6.920;2023-05-19T08:39:21;29.35;;;23.65;;
62832;SDS011;48891;49.220;6.920;2023-05-19T08:41:46;26.05;;;21.42;;
62832;SDS011;48891;49.220;6.920;2023-05-19T08:44:11;28.45;;;22.75;;
62832;SDS011;48891;49.220;6.920;2023-05-19T08:46:36;26.00;;;22.67;;
62832;SDS011;48891;49.220;6.920;2023-05-19T08:49:03;27.10;;;22.80;;
62832;SDS011;48891;49.220;6.920;2023-05-19T08:54:18;28.67;;;22.45;;
62832;SDS011;48891;49.220;6.920;2023-05-19T08:56:46;28.50;;;23.40;;
62832;SDS011;48891;49.220;6.920;2023-05-19T08:59:12;27.27;;;22.15;;
62832;SDS011;48891;49.220;6.920;2023-05-19T09:01:38;27.67;;;22.85;;
62832;SDS011;48891;49.220;6.920;2023-05-19T09:04:06;27.52;;;22.50;;
62832;SDS011;48891;49.220;6.920;2023-05-19T09:06:32;26.65;;;21.77;;
62832;SDS011;48891;49.220;6.920;2023-05-19T09:08:58;27.88;;;22.17;;
62832;SDS011;48891;49.220;6.920;2023-05-19T09:11:23;26.63;;;21.60;;
62832;SDS011;48891;49.220;6.920;2023-05-19T09:13:48;27.02;;;22.05;;
62832;SDS011;48891;49.220;6.920;2023-05-19T09:16:14;27.13;;;21.85;;
62832;SDS011;48891;49.220;6.920;2023-05-19T09:18:39;27.33;;;22.08;;
62832;SDS011;48891;49.220;6.920;2023-05-19T09:21:04;24.77;;;21.80;;
62832;SDS011;48891;49.220;6.920;2023-05-19T09:23:30;25.88;;;21.67;;
62832;SDS011;48891;49.220;6.920;2023-05-19T09:25:56;28.00;;;22.90;;
62832;SDS011;48891;49.220;6.920;2023-05-19T09:33:36;26.85;;;22.48;;
62832;SDS011;48891;49.220;6.920;2023-05-19T09:36:03;25.35;;;21.88;;
62832;SDS011;48891;49.220;6.920;2023-05-19T09:38:29;26.00;;;21.60;;
62832;SDS011;48891;49.220;6.920;2023-05-19T09:40:54;26.30;;;21.40;;
62832;SDS011;48891;49.220;6.920;2023-05-19T09:43:20;27.63;;;22.10;;
62832;SDS011;48891;49.220;6.920;2023-05-19T09:45:45;26.63;;;22.20;;
62832;SDS011;48891;49.220;6.920;2023-05-19T09:48:12;27.98;;;22.95;;
62832;SDS011;48891;49.220;6.920;2023-05-19T09:50:38;29.73;;;22.67;;
62832;SDS011;48891;49.220;6.920;2023-05-19T09:53:04;27.85;;;22.30;;
62832;SDS011;48891;49.220;6.920;2023-05-19T09:55:29;27.75;;;22.30;;
62832;SDS011;48891;49.220;6.920;2023-05-19T09:57:54;27.75;;;22.80;;
62832;SDS011;48891;49.220;6.920;2023-05-19T10:00:20;26.00;;;21.65;;
62832;SDS011;48891;49.220;6.920;2023-05-19T10:02:46;26.13;;;21.23;;
62832;SDS011;48891;49.220;6.920;2023-05-19T10:05:13;25.42;;;21.17;;
62832;SDS011;48891;49.220;6.920;2023-05-19T10:07:39;25.50;;;22.10;;
62832;SDS011;48891;49.220;6.920;2023-05-19T10:10:07;25.85;;;21.27;;
62832;SDS011;48891;49.220;6.920;2023-05-19T10:12:33;27.02;;;21.25;;
62832;SDS011;48891;49.220;6.920;2023-05-19T10:15:00;26.13;;;21.17;;
62832;SDS011;48891;49.220;6.920;2023-05-19T10:17:26;24.90;;;21.05;;
62832;SDS011;48891;49.220;6.920;2023-05-19T10:19:52;25.15;;;20.83;;
62832;SDS011;48891;49.220;6.920;2023-05-19T10:22:17;23.73;;;20.10;;
62832;SDS011;48891;49.220;6.920;2023-05-19T10:24:42;26.33;;;20.85;;
62832;SDS011;48891;49.220;6.920;2023-05-19T10:27:09;24.38;;;20.83;;
62832;SDS011;48891;49.220;6.920;2023-05-19T10:29:38;25.55;;;21.55;;
62832;SDS011;48891;49.220;6.920;2023-05-19T10:32:10;25.00;;;20.42;;
62832;SDS011;48891;49.220;6.920;2023-05-19T10:35:07;25.38;;;20.35;;
62832;SDS011;48891;49.220;6.920;2023-05-19T10:40:31;24.50;;;20.55;;
62832;SDS011;48891;49.220;6.920;2023-05-19T10:45:33;25.08;;;19.80;;
62832;SDS011;48891;49.220;6.920;2023-05-19T10:48:09;25.50;;;20.60;;
62832;SDS011;48891;49.220;6.920;2023-05-19T10:50:35;24.52;;;20.00;;
62832;SDS011;48891;49.220;6.920;2023-05-19T10:53:01;24.85;;;21.38;;
62832;SDS011;48891;49.220;6.920;2023-05-19T10:55:45;25.77;;;20.38;;
62832;SDS011;48891;49.220;6.920;2023-05-19T10:58:14;24.63;;;19.50;;
62832;SDS011;48891;49.220;6.920;2023-05-19T11:00:39;25.92;;;21.33;;
62832;SDS011;48891;49.220;6.920;2023-05-19T11:03:11;23.60;;;19.38;;
62832;SDS011;48891;49.220;6.920;2023-05-19T11:05:37;23.67;;;19.38;;
62832;SDS011;48891;49.220;6.920;2023-05-19T11:08:04;25.92;;;20.02;;
62832;SDS011;48891;49.220;6.920;2023-05-19T11:10:30;25.02;;;20.13;;
62832;SDS011;48891;49.220;6.920;2023-05-19T11:12:56;24.02;;;19.85;;
62832;SDS011;48891;49.220;6.920;2023-05-19T11:15:23;25.10;;;19.95;;
62832;SDS011;48891;49.220;6.920;2023-05-19T11:17:50;22.73;;;19.58;;
62832;SDS011;48891;49.220;6.920;2023-05-19T11:20:22;22.70;;;19.58;;
62832;SDS011;48891;49.220;6.920;2023-05-19T11:23:05;24.58;;;19.63;;
62832;SDS011;48891;49.220;6.920;2023-05-19T11:28:09;25.00;;;19.45;;
62832;SDS011;48891;49.220;6.920;2023-05-19T11:30:35;24.70;;;20.27;;
62832;SDS011;48891;49.220;6.920;2023-05-19T11:33:00;24.25;;;19.65;;
62832;SDS011;48891;49.220;6.920;2023-05-19T11:35:26;23.77;;;19.98;;
62832;SDS011;48891;49.220;6.920;2023-05-19T11:37:53;22.88;;;19.27;;
62832;SDS011;48891;49.220;6.920;2023-05-19T11:40:19;23.27;;;19.85;;
62832;SDS011;48891;49.220;6.920;2023-05-19T11:42:45;26.42;;;20.98;;
62832;SDS011;48891;49.220;6.920;2023-05-19T11:45:10;24.48;;;19.95;;
62832;SDS011;48891;49.220;6.920;2023-05-19T11:47:35;25.90;;;20.05;;
62832;SDS011;48891;49.220;6.920;2023-05-19T11:50:00;24.05;;;19.17;;
62832;SDS011;48891;49.220;6.920;2023-05-19T11:52:26;23.25;;;19.55;;
62832;SDS011;48891;49.220;6.920;2023-05-19T11:54:51;22.73;;;19.80;;
62832;SDS011;48891;49.220;6.920;2023-05-19T11:57:17;24.42;;;20.02;;
62832;SDS011;48891;49.220;6.920;2023-05-19T11:59:42;23.13;;;19.52;;
62832;SDS011;48891;49.220;6.920;2023-05-19T12:04:46;24.25;;;19.73;;
62832;SDS011;48891;49.220;6.920;2023-05-19T12:07:13;22.65;;;18.48;;
62832;SDS011;48891;49.220;6.920;2023-05-19T12:09:40;25.23;;;20.80;;
62832;SDS011;48891;49.220;6.920;2023-05-19T12:12:05;26.08;;;20.27;;
62832;SDS011;48891;49.220;6.920;2023-05-19T12:14:31;23.73;;;20.33;;
62832;SDS011;48891;49.220;6.920;2023-05-19T12:16:57;23.25;;;19.58;;
62832;SDS011;48891;49.220;6.920;2023-05-19T12:19:22;24.85;;;19.90;;
62832;SDS011;48891;49.220;6.920;2023-05-19T12:21:48;21.60;;;18.90;;
62832;SDS011;48891;49.220;6.920;2023-05-19T12:24:14;23.20;;;19.92;;
62832;SDS011;48891;49.220;6.920;2023-05-19T12:26:39;21.95;;;19.30;;
62832;SDS011;48891;49.220;6.920;2023-05-19T12:29:05;21.98;;;18.98;;
62832;SDS011;48891;49.220;6.920;2023-05-19T12:31:30;21.17;;;18.88;;
62832;SDS011;48891;49.220;6.920;2023-05-19T12:33:57;21.98;;;19.55;;
62832;SDS011;48891;49.220;6.920;2023-05-19T12:36:23;22.73;;;19.10;;
62832;SDS011;48891;49.220;6.920;2023-05-19T12:38:52;21.38;;;18.35;;
62832;SDS011;48891;49.220;6.920;2023-05-19T12:41:18;22.35;;;18.55;;
62832;SDS011;48891;49.220;6.920;2023-05-19T12:43:43;22.10;;;18.65;;
62832;SDS011;48891;49.220;6.920;2023-05-19T12:46:09;21.08;;;18.30;;
62832;SDS011;48891;49.220;6.920;2023-05-19T12:48:38;21.45;;;18.48;;
62832;SDS011;48891;49.220;6.920;2023-05-19T12:51:04;23.17;;;18.67;;
62832;SDS011;48891;49.220;6.920;2023-05-19T12:53:30;22.23;;;18.55;;
62832;SDS011;48891;49.220;6.920;2023-05-19T12:55:57;22.30;;;18.73;;
62832;SDS011;48891;49.220;6.920;2023-05-19T12:58:22;22.27;;;19.25;;
62832;SDS011;48891;49.220;6.920;2023-05-19T13:00:47;24.35;;;19.13;;
62832;SDS011;48891;49.220;6.920;2023-05-19T13:03:16;22.83;;;18.73;;
62832;SDS011;48891;49.220;6.920;2023-05-19T13:05:44;21.55;;;17.98;;
62832;SDS011;48891;49.220;6.920;2023-05-19T13:08:12;22.67;;;18.50;;
62832;SDS011;48891;49.220;6.920;2023-05-19T13:10:39;23.63;;;18.98;;
62832;SDS011;48891;49.220;6.920;2023-05-19T13:13:06;22.95;;;18.45;;
62832;SDS011;48891;49.220;6.920;2023-05-19T13:15:32;23.25;;;18.45;;
62832;SDS011;48891;49.220;6.920;2023-05-19T13:17:59;22.48;;;19.02;;
62832;SDS011;48891;49.220;6.920;2023-05-19T13:20:25;23.02;;;19.45;;
62832;SDS011;48891;49.220;6.920;2023-05-19T13:22:51;22.40;;;18.42;;
62832;SDS011;48891;49.220;6.920;2023-05-19T13:25:16;22.65;;;19.05;;
62832;SDS011;48891;49.220;6.920;2023-05-19T13:27:42;22.30;;;18.35;;
62832;SDS011;48891;49.220;6.920;2023-05-19T13:30:08;22.30;;;18.63;;
62832;SDS011;48891;49.220;6.920;2023-05-19T13:32:34;22.20;;;18.48;;
62832;SDS011;48891;49.220;6.920;2023-05-19T13:35:00;22.45;;;18.00;;
62832;SDS011;48891;49.220;6.920;2023-05-19T13:37:25;22.08;;;18.55;;
62832;SDS011;48891;49.220;6.920;2023-05-19T13:39:50;21.30;;;18.42;;
62832;SDS011;48891;49.220;6.920;2023-05-19T13:42:15;22.05;;;18.35;;
62832;SDS011;48891;49.220;6.920;2023-05-19T13:44:41;21.20;;;18.25;;
62832;SDS011;48891;49.220;6.920;2023-05-19T13:47:06;20.92;;;18.42;;
62832;SDS011;48891;49.220;6.920;2023-05-19T13:49:31;21.97;;;18.30;;
62832;SDS011;48891;49.220;6.920;2023-05-19T13:51:57;21.33;;;18.23;;
62832;SDS011;48891;49.220;6.920;2023-05-19T13:54:22;21.45;;;18.13;;
62832;SDS011;48891;49.220;6.920;2023-05-19T13:56:48;21.45;;;18.85;;
62832;SDS011;48891;49.220;6.920;2023-05-19T13:59:13;22.38;;;18.55;;
62832;SDS011;48891;49.220;6.920;2023-05-19T14:01:38;22.02;;;18.52;;
62832;SDS011;48891;49.220;6.920;2023-05-19T14:04:04;21.95;;;18.67;;
62832;SDS011;48891;49.220;6.920;2023-05-19T14:06:29;20.75;;;17.45;;
62832;SDS011;48891;49.220;6.920;2023-05-19T14:08:54;21.38;;;18.15;;
62832;SDS011;48891;49.220;6.920;2023-05-19T14:11:20;21.52;;;17.33;;
62832;SDS011;48891;49.220;6.920;2023-05-19T14:13:48;20.83;;;17.83;;
62832;SDS011;48891;49.220;6.920;2023-05-19T14:16:13;21.33;;;18.40;;
62832;SDS011;48891;49.220;6.920;2023-05-19T14:18:39;20.30;;;17.08;;
62832;SDS011;48891;49.220;6.920;2023-05-19T14:21:04;22.25;;;17.58;;
62832;SDS011;48891;49.220;6.920;2023-05-19T14:23:30;20.60;;;17.77;;
62832;SDS011;48891;49.220;6.920;2023-05-19T14:25:56;21.52;;;17.30;;
62832;SDS011;48891;49.220;6.920;2023-05-19T14:28:21;21.88;;;17.73;;
62832;SDS011;48891;49.220;6.920;2023-05-19T14:30:46;21.35;;;17.77;;
62832;SDS011;48891;49.220;6.920;2023-05-19T14:33:11;20.52;;;17.25;;
62832;SDS011;48891;49.220;6.920;2023-05-19T14:35:36;22.48;;;17.80;;
62832;SDS011;48891;49.220;6.920;2023-05-19T14:38:02;20.90;;;17.92;;
62832;SDS011;48891;49.220;6.920;2023-05-19T14:40:27;21.70;;;17.70;;
62832;SDS011;48891;49.220;6.920;2023-05-19T14:42:53;20.58;;;17.35;;
62832;SDS011;48891;49.220;6.920;2023-05-19T14:45:18;19.83;;;17.73;;
62832;SDS011;48891;49.220;6.920;2023-05-19T14:47:43;19.70;;;17.50;;
62832;SDS011;48891;49.220;6.920;2023-05-19T14:50:08;20.08;;;17.48;;
62832;SDS011;48891;49.220;6.920;2023-05-19T14:52:34;19.35;;;16.00;;
62832;SDS011;48891;49.220;6.920;2023-05-19T14:54:59;20.83;;;18.00;;
62832;SDS011;48891;49.220;6.920;2023-05-19T14:57:24;20.80;;;17.02;;